Time,TemperatureF,DewpointF,PressureIn,WindDirection,WindDirectionDegrees,WindSpeedMPH,WindSpeedGustMPH,Humidity,HourlyPrecipIn,Conditions,Clouds,dailyrainin,SoftwareType,DateUTC
2013-10-22 00:13:00,54.0,48.0,29.85,ESE,105,0.0,5.0,80,0.00,,,0.02,,2013-10-22 05:13:00,
2013-10-22 00:22:00,54.0,48.0,29.31,NNE,24,0.0,2.0,80,0.00,,,0.02,,2013-10-22 05:22:00,
2013-10-22 00:43:00,53.0,47.0,29.34,West,273,0.0,2.0,79,0.00,,,0.02,,2013-10-22 05:43:00,
2013-10-22 00:52:00,53.0,47.0,29.34,West,273,0.0,2.0,79,0.00,,,0.02,,2013-10-22 05:52:00,
2013-10-22 01:12:00,53.0,47.0,29.59,NNW,336,0.0,1.0,79,0.00,,,0.02,,2013-10-22 06:12:00,
2013-10-22 01:22:00,52.0,46.0,29.34,NNW,336,0.0,2.0,79,0.00,,,0.02,,2013-10-22 06:22:00,
2013-10-22 01:42:00,52.0,46.0,29.34,NNW,336,0.0,1.0,80,0.00,,,0.02,,2013-10-22 06:42:00,
2013-10-22 01:53:00,52.0,46.0,29.41,NNW,336,0.0,1.0,80,0.00,,,0.02,,2013-10-22 06:53:00,
2013-10-22 02:12:00,51.0,45.0,29.77,NNW,336,0.0,1.0,81,0.00,,,0.02,,2013-10-22 07:12:00,
2013-10-22 02:22:00,51.0,46.0,30.02,NNW,336,0.0,2.0,82,0.00,,,0.02,,2013-10-22 07:22:00,
2013-10-22 02:52:00,50.0,45.0,29.96,NNW,336,0.0,1.0,84,0.00,,,0.02,,2013-10-22 07:52:00,
2013-10-22 03:12:00,49.0,44.0,30.03,NNW,347,1.0,3.0,84,0.00,,,0.02,,2013-10-22 08:12:00,
2013-10-22 03:22:00,49.0,44.0,30.02,NNW,327,1.0,5.0,84,0.00,,,0.02,,2013-10-22 08:22:00,
2013-10-22 03:42:00,49.0,44.0,29.81,NW,305,1.0,3.0,83,0.00,,,0.02,,2013-10-22 08:42:00,
2013-10-22 03:52:00,49.0,44.0,30.00,NW,309,1.0,3.0,84,0.00,,,0.02,,2013-10-22 08:52:00,
2013-10-22 04:11:00,49.0,44.0,29.87,NW,309,0.0,2.0,84,0.00,,,0.02,,2013-10-22 09:11:00,
2013-10-22 04:21:00,49.0,45.0,29.97,NW,309,0.0,1.0,85,0.00,,,0.02,,2013-10-22 09:21:00,
2013-10-22 04:53:00,48.0,44.0,29.83,NW,309,0.0,1.0,85,0.00,,,0.02,,2013-10-22 09:53:00,
2013-10-22 05:13:00,48.0,44.0,29.89,NW,309,0.0,0.0,85,0.00,,,0.02,,2013-10-22 10:13:00,
2013-10-22 05:23:00,47.0,43.0,29.77,NW,309,0.0,0.0,85,0.00,,,0.02,,2013-10-22 10:23:00,
2013-10-22 05:43:00,47.0,43.0,30.03,NW,309,0.0,0.0,85,0.00,,,0.02,,2013-10-22 10:43:00,
2013-10-22 05:53:00,46.0,42.0,29.90,NW,309,0.0,0.0,86,0.00,,,0.02,,2013-10-22 10:53:00,
2013-10-22 06:12:00,45.0,41.0,29.92,NW,309,0.0,1.0,86,0.00,,,0.02,,2013-10-22 11:12:00,
2013-10-22 06:22:00,45.0,41.0,29.43,NW,309,1.0,2.0,87,0.00,,,0.02,,2013-10-22 11:22:00,
2013-10-22 06:42:00,45.0,42.0,29.60,NW,309,0.0,1.0,88,0.00,,,0.02,,2013-10-22 11:42:00,
2013-10-22 06:52:00,45.0,42.0,29.60,NW,309,0.0,3.0,89,0.00,,,0.02,,2013-10-22 11:52:00,
2013-10-22 07:11:00,44.0,41.0,29.92,NW,309,0.0,1.0,89,0.00,,,0.02,,2013-10-22 12:11:00,
2013-10-22 07:22:00,44.0,41.0,30.07,NW,307,0.0,1.0,89,0.00,,,0.02,,2013-10-22 12:22:00,
2013-10-22 07:42:00,44.0,41.0,29.98,NW,307,0.0,2.0,90,0.00,,,0.02,,2013-10-22 12:42:00,
2013-10-22 07:52:00,44.0,41.0,30.06,NW,306,1.0,3.0,90,0.00,,,0.02,,2013-10-22 12:52:00,
2013-10-22 08:12:00,43.0,40.0,30.07,WNW,302,1.0,3.0,90,0.00,,,0.02,,2013-10-22 13:12:00,
2013-10-22 08:21:00,43.0,40.0,30.05,WNW,301,1.0,3.0,90,0.00,,,0.02,,2013-10-22 13:21:00,
2013-10-22 08:42:00,44.0,41.0,30.09,WNW,296,1.0,3.0,90,0.00,,,0.02,,2013-10-22 13:42:00,
2013-10-22 08:53:00,44.0,41.0,30.08,WNW,287,0.0,3.0,90,0.00,,,0.02,,2013-10-22 13:53:00,
2013-10-22 09:11:00,45.0,43.0,30.01,West,280,2.0,3.0,91,0.00,,,0.02,,2013-10-22 14:11:00,
2013-10-22 09:21:00,46.0,43.0,30.06,WNW,291,1.0,3.0,90,0.00,,,0.02,,2013-10-22 14:21:00,
2013-10-22 09:42:00,48.0,44.0,30.10,WNW,291,1.0,3.0,85,0.00,,,0.02,,2013-10-22 14:42:00,
2013-10-22 09:52:00,49.0,43.0,30.08,WNW,290,1.0,3.0,81,0.00,,,0.02,,2013-10-22 14:52:00,
2013-10-22 10:12:00,52.0,44.0,30.01,NW,305,1.0,3.0,75,0.00,,,0.02,,2013-10-22 15:12:00,
2013-10-22 10:22:00,53.0,46.0,29.88,NW,304,1.0,3.0,76,0.00,,,0.02,,2013-10-22 15:22:00,
2013-10-22 10:54:00,58.0,46.0,29.54,West,281,1.0,6.0,64,0.00,,,0.00,,2013-10-22 15:54:00,
2013-10-22 11:13:00,60.0,47.0,29.51,WNW,286,2.0,6.0,61,0.00,,,0.00,,2013-10-22 16:13:00,
2013-10-22 11:23:00,61.0,45.0,29.59,NW,326,2.0,6.0,56,0.00,,,0.00,,2013-10-22 16:23:00,
2013-10-22 11:43:00,63.0,46.0,29.65,NW,315,1.0,5.0,54,0.00,,,0.00,,2013-10-22 16:43:00,
2013-10-22 11:53:00,64.0,47.0,29.66,WNW,295,1.0,5.0,54,0.00,,,0.00,,2013-10-22 16:53:00,
2013-10-22 12:12:00,67.0,48.0,29.91,West,277,1.0,6.0,50,0.00,,,0.00,,2013-10-22 17:12:00,
2013-10-22 12:22:00,68.0,47.0,29.98,WNW,296,1.0,6.0,47,0.00,,,0.00,,2013-10-22 17:22:00,
2013-10-22 12:43:00,68.0,44.0,29.94,WNW,296,1.0,5.0,42,0.00,,,0.00,,2013-10-22 17:43:00,
2013-10-22 14:12:00,69.0,44.0,29.96,West,279,3.0,9.0,40,0.00,,,0.00,,2013-10-22 19:12:00,
2013-10-22 14:22:00,69.0,44.0,29.93,West,267,1.0,9.0,40,0.00,,,0.00,,2013-10-22 19:22:00,
2013-10-22 14:42:00,70.0,45.0,29.80,West,272,2.0,7.0,41,0.00,,,0.00,,2013-10-22 19:42:00,
2013-10-22 14:52:00,70.0,45.0,29.52,West,273,2.0,6.0,41,0.00,,,0.00,,2013-10-22 19:52:00,
2013-10-22 15:11:00,70.0,45.0,29.94,West,274,3.0,9.0,40,0.00,,,0.00,,2013-10-22 20:11:00,
2013-10-22 15:22:00,70.0,44.0,30.00,West,268,3.0,12.0,39,0.00,,,0.00,,2013-10-22 20:22:00,
2013-10-22 15:43:00,71.0,45.0,29.98,WNW,282,3.0,12.0,39,0.00,,,0.00,,2013-10-22 20:43:00,
2013-10-22 15:52:00,71.0,44.0,29.97,West,272,3.0,12.0,38,0.00,,,0.00,,2013-10-22 20:52:00,
2013-10-22 16:12:00,71.0,45.0,29.30,West,275,2.0,9.0,40,0.00,,,0.00,,2013-10-22 21:12:00,
2013-10-22 17:14:00,72.0,47.0,29.97,West,269,1.0,9.0,41,0.00,,,0.00,,2013-10-22 22:14:00,
2013-10-22 17:24:00,72.0,48.0,29.93,WSW,251,3.0,7.0,42,0.00,,,0.00,,2013-10-22 22:24:00,
2013-10-22 17:44:00,72.0,48.0,29.83,West,275,1.0,5.0,42,0.00,,,0.00,,2013-10-22 22:44:00,
2013-10-22 17:54:00,72.0,48.0,29.70,West,277,3.0,7.0,42,0.00,,,0.00,,2013-10-22 22:54:00,
2013-10-22 18:12:00,72.0,48.0,29.85,West,271,2.0,6.0,42,0.00,,,0.00,,2013-10-22 23:12:00,
2013-10-22 18:23:00,72.0,48.0,29.95,West,271,1.0,6.0,43,0.00,,,0.00,,2013-10-22 23:23:00,
2013-10-22 18:43:00,71.0,49.0,29.81,West,273,0.0,2.0,45,0.00,,,0.00,,2013-10-22 23:43:00,
2013-10-22 18:53:00,71.0,49.0,29.94,West,273,0.0,0.0,46,0.00,,,0.00,,2013-10-22 23:53:00,
2013-10-22 19:11:00,70.0,50.0,29.88,West,273,0.0,0.0,49,0.00,,,0.00,,2013-10-23 00:11:00,
2013-10-22 19:22:00,69.0,50.0,29.96,West,273,0.0,0.0,50,0.00,,,0.00,,2013-10-23 00:22:00,
2013-10-22 19:42:00,67.0,49.0,29.94,West,273,0.0,0.0,53,0.00,,,0.00,,2013-10-23 00:42:00,
2013-10-22 19:52:00,66.0,49.0,29.81,West,273,0.0,1.0,55,0.00,,,0.00,,2013-10-23 00:52:00,
2013-10-22 20:11:00,65.0,50.0,29.48,West,273,0.0,1.0,58,0.00,,,0.00,,2013-10-23 01:11:00,
2013-10-22 20:23:00,64.0,50.0,29.40,West,273,0.0,0.0,60,0.00,,,0.00,,2013-10-23 01:23:00,
2013-10-22 20:42:00,62.0,48.0,29.51,West,273,0.0,0.0,61,0.00,,,0.00,,2013-10-23 01:42:00,
2013-10-22 20:52:00,62.0,49.0,29.74,West,273,0.0,0.0,62,0.00,,,0.00,,2013-10-23 01:52:00,
2013-10-22 21:11:00,61.0,49.0,29.82,West,273,0.0,1.0,64,0.00,,,0.00,,2013-10-23 02:11:00,
2013-10-22 21:22:00,60.0,48.0,29.88,West,273,0.0,0.0,65,0.00,,,0.00,,2013-10-23 02:22:00,
2013-10-22 21:42:00,60.0,49.0,29.82,West,273,0.0,0.0,66,0.00,,,0.00,,2013-10-23 02:42:00,
2013-10-22 21:53:00,59.0,48.0,29.81,West,273,0.0,0.0,66,0.00,,,0.00,,2013-10-23 02:53:00,
2013-10-22 22:12:00,59.0,48.0,29.60,West,273,0.0,0.0,67,0.00,,,0.00,,2013-10-23 03:12:00,
2013-10-22 22:22:00,59.0,48.0,29.75,West,273,0.0,0.0,66,0.00,,,0.00,,2013-10-23 03:22:00,
2013-10-22 22:44:00,58.0,47.0,29.88,West,273,0.0,1.0,67,0.00,,,0.00,,2013-10-23 03:44:00,
2013-10-22 22:55:00,58.0,47.0,29.81,West,273,0.0,1.0,67,0.00,,,0.00,,2013-10-23 03:55:00,
2013-10-22 23:14:00,58.0,47.0,29.80,West,273,0.0,0.0,68,0.00,,,0.00,,2013-10-23 04:14:00,
2013-10-22 23:24:00,58.0,47.0,29.42,West,273,0.0,0.0,68,0.00,,,0.00,,2013-10-23 04:24:00,
2013-10-22 23:45:00,57.0,47.0,29.16,West,273,0.0,0.0,69,0.00,,,0.00,,2013-10-23 04:45:00,
2013-10-22 23:54:00,57.0,47.0,29.16,West,273,0.0,0.0,70,0.00,,,0.00,,2013-10-23 04:54:00,